createdAt,value
2018-09-17T00:00:25.246Z,68.26
2018-09-17T00:02:52.990Z,67.89
2018-09-17T00:05:21.880Z,67.91
2018-09-17T00:07:50.199Z,67.51
2018-09-17T00:10:18.516Z,67.15
2018-09-17T00:12:46.825Z,66.90
2018-09-17T00:15:15.144Z,66.57
2018-09-17T00:17:42.889Z,66.58
2018-09-17T00:20:11.788Z,66.10
2018-09-17T00:22:39.526Z,65.92
2018-09-17T00:25:07.841Z,65.60
2018-09-17T00:27:36.158Z,65.51
2018-09-17T00:30:06.265Z,65.25
2018-09-17T00:32:33.380Z,64.68
2018-09-17T00:35:01.119Z,64.83
2018-09-17T00:37:29.427Z,64.54
2018-09-17T00:39:58.321Z,64.52
2018-09-17T00:42:26.058Z,64.57
2018-09-17T00:44:54.969Z,63.83
2018-09-17T00:47:23.280Z,64.12
2018-09-17T00:49:51.597Z,63.86
2018-09-17T00:52:20.030Z,63.70
2018-09-17T00:54:48.359Z,63.84
2018-09-17T00:57:16.705Z,63.81
2018-09-17T00:59:44.439Z,63.43
2018-09-17T01:02:13.330Z,63.25
2018-09-17T01:04:41.652Z,63.38
2018-09-17T01:07:09.385Z,63.25
2018-09-17T01:09:37.706Z,63.13
2018-09-17T01:12:06.601Z,63.04
2018-09-17T01:14:34.337Z,63.21
2018-09-17T01:17:02.653Z,63.00
2018-09-17T01:19:30.973Z,62.96
2018-09-17T01:21:59.286Z,62.79
2018-09-17T01:24:27.604Z,62.70
2018-09-17T01:26:55.922Z,62.51
2018-09-17T01:29:24.238Z,62.64
2018-09-17T01:31:53.124Z,62.59
2018-09-17T01:34:20.866Z,62.61
2018-09-17T01:36:49.756Z,62.73
2018-09-17T01:39:18.076Z,62.77
2018-09-17T01:41:46.387Z,62.76
2018-09-17T01:44:14.706Z,62.67
2018-09-17T01:46:43.017Z,62.61
2018-09-17T01:49:11.339Z,62.60
2018-09-17T01:51:39.660Z,62.65
2018-09-17T01:54:07.402Z,62.29
2018-09-17T01:56:36.306Z,62.25
2018-09-17T01:59:04.624Z,62.28
2018-09-17T02:01:32.931Z,62.04
2018-09-17T02:04:00.724Z,62.06
2018-09-17T02:06:29.590Z,62.10
2018-09-17T02:08:57.345Z,62.04
2018-09-17T02:11:26.216Z,61.95
2018-09-17T02:13:54.537Z,61.98
2018-09-17T02:16:22.853Z,61.84
2018-09-17T02:18:51.164Z,61.75
2018-09-17T02:21:18.900Z,61.64
2018-09-17T02:23:47.701Z,61.61
2018-09-17T02:26:15.532Z,61.57
2018-09-17T02:28:43.858Z,61.66
2018-09-17T02:31:12.165Z,61.65
2018-09-17T02:33:41.062Z,61.71
2018-09-17T02:36:08.798Z,61.62
2018-09-17T02:38:37.693Z,61.51
2018-09-17T02:41:06.001Z,61.34
2018-09-17T02:43:33.751Z,61.20
2018-09-17T02:46:02.651Z,61.19
2018-09-17T02:48:30.955Z,61.17
2018-09-17T02:50:58.690Z,61.12
2018-09-17T02:53:27.657Z,61.09
2018-09-17T02:55:55.907Z,61.00
2018-09-17T02:58:24.222Z,61.02
2018-09-17T03:00:51.983Z,60.77
2018-09-17T03:03:20.881Z,60.78
2018-09-17T03:05:48.620Z,60.71
2018-09-17T03:08:17.520Z,60.69
2018-09-17T03:10:45.836Z,60.63
2018-09-17T03:13:13.584Z,60.41
2018-09-17T03:15:45.168Z,60.50
2018-09-17T03:18:13.489Z,60.33
2018-09-17T03:20:41.229Z,60.28
2018-09-17T03:23:09.550Z,60.28
2018-09-17T03:25:38.451Z,60.27
2018-09-17T03:28:06.197Z,60.22
2018-09-17T03:30:35.128Z,60.15
2018-09-17T03:33:03.450Z,60.08
2018-09-17T03:35:31.767Z,60.09
2018-09-17T03:38:00.084Z,59.92
2018-09-17T03:40:28.409Z,59.86
2018-09-17T03:42:56.728Z,59.85
2018-09-17T03:45:24.463Z,59.94
2018-09-17T03:47:52.801Z,59.91
2018-09-17T03:50:21.676Z,59.70
2018-09-17T03:52:49.993Z,59.78
2018-09-17T03:55:18.310Z,59.79
2018-09-17T03:57:46.630Z,59.87
2018-09-17T04:00:14.381Z,59.84
2018-09-17T04:02:43.308Z,59.65
2018-09-17T04:05:11.617Z,59.50
2018-09-17T04:07:39.477Z,59.47
2018-09-17T04:10:07.670Z,59.40
2018-09-17T04:12:35.982Z,59.37
2018-09-17T04:15:04.874Z,59.38
2018-09-17T04:17:33.198Z,59.35
2018-09-17T04:20:01.511Z,59.33
2018-09-17T04:22:29.841Z,59.35
2018-09-17T04:24:58.151Z,59.32
2018-09-17T04:27:26.470Z,59.19
2018-09-17T04:29:54.209Z,59.14
2018-09-17T04:32:23.099Z,58.93
2018-09-17T04:34:51.423Z,58.91
2018-09-17T04:37:19.752Z,59.00
2018-09-17T04:39:47.553Z,58.83
2018-09-17T04:42:16.382Z,59.00
2018-09-17T04:44:44.136Z,59.04
2018-09-17T04:47:12.450Z,59.09
2018-09-17T04:49:41.349Z,59.14
2018-09-17T04:52:09.688Z,59.05
2018-09-17T04:54:37.505Z,59.16
2018-09-17T04:57:06.323Z,59.19
2018-09-17T04:59:34.637Z,59.19
2018-09-17T05:02:02.955Z,59.22
2018-09-17T05:04:31.309Z,59.14
2018-09-17T05:06:59.046Z,59.16
2018-09-17T05:09:28.100Z,59.21
2018-09-17T05:11:56.633Z,59.21
2018-09-17T05:14:24.965Z,59.21
2018-09-17T05:16:53.281Z,59.35
2018-09-17T05:19:21.374Z,59.41
2018-09-17T05:21:49.936Z,59.43
2018-09-17T05:24:17.469Z,59.35
2018-09-17T05:26:46.402Z,59.38
2018-09-17T05:29:15.796Z,59.44
2018-09-17T05:31:44.143Z,59.35
2018-09-17T05:34:11.893Z,59.32
2018-09-17T05:36:40.810Z,59.33
2018-09-17T05:39:08.562Z,58.96
2018-09-17T05:41:36.885Z,58.84
2018-09-17T05:44:05.790Z,58.77
2018-09-17T05:46:33.583Z,58.83
2018-09-17T05:49:02.417Z,58.84
2018-09-17T05:51:30.755Z,58.74
2018-09-17T05:53:59.073Z,58.80
2018-09-17T05:56:27.395Z,58.67
2018-09-17T05:58:55.140Z,58.50
2018-09-17T06:01:23.537Z,58.35
2018-09-17T06:03:52.457Z,58.32
2018-09-17T06:06:20.803Z,58.17
2018-09-17T06:08:49.118Z,58.28
2018-09-17T06:11:16.905Z,58.29
2018-09-17T06:13:45.773Z,58.23
2018-09-17T06:16:13.507Z,58.31
2018-09-17T06:18:41.835Z,58.19
2018-09-17T06:21:10.769Z,58.08
2018-09-17T06:23:38.513Z,58.20
2018-09-17T06:26:07.413Z,58.28
2018-09-17T06:28:35.808Z,58.04
2018-09-17T06:31:04.104Z,57.88
2018-09-17T06:33:31.838Z,57.70
2018-09-17T06:36:01.141Z,57.62
2018-09-17T06:38:28.887Z,57.65
2018-09-17T06:40:57.783Z,57.66
2018-09-17T06:43:26.101Z,57.16
2018-09-17T06:45:53.841Z,56.98
2018-09-17T06:48:22.790Z,57.01
2018-09-17T06:50:51.323Z,56.87
2018-09-17T06:53:19.079Z,56.57
2018-09-17T06:55:48.017Z,56.72
2018-09-17T06:58:16.321Z,56.94
2018-09-17T07:00:44.070Z,56.91
2018-09-17T07:03:12.973Z,56.47
2018-09-17T07:05:41.306Z,56.69
2018-09-17T07:08:09.080Z,55.95
2018-09-17T07:10:38.000Z,55.93
2018-09-17T07:13:05.746Z,55.53
2018-09-17T07:15:34.681Z,55.27
2018-09-17T07:18:03.033Z,55.16
2018-09-17T07:20:31.326Z,55.25
2018-09-17T07:22:59.683Z,54.66
2018-09-17T07:25:28.025Z,54.70
2018-09-17T07:27:56.348Z,54.69
2018-09-17T07:30:24.109Z,54.19
2018-09-17T07:32:53.025Z,54.37
2018-09-17T07:35:21.355Z,54.52
2018-09-17T07:37:49.096Z,54.18
2018-09-17T07:40:17.414Z,54.09
2018-09-17T07:42:46.730Z,53.85
2018-09-17T07:45:15.020Z,54.04
2018-09-17T07:47:43.352Z,53.92
2018-09-17T07:50:11.728Z,54.03
2018-09-17T07:52:40.071Z,53.82
2018-09-17T07:55:08.725Z,53.95
2018-09-17T07:57:37.839Z,53.63
2018-09-17T08:00:05.655Z,53.69
2018-09-17T08:02:34.496Z,53.44
2018-09-17T08:05:22.052Z,53.37
2018-09-17T08:07:51.251Z,52.93
2018-09-17T08:10:19.543Z,52.63
2018-09-17T08:12:47.874Z,52.21
2018-09-17T08:15:16.236Z,51.82
2018-09-17T08:17:44.551Z,51.29
2018-09-17T08:20:12.916Z,50.18
2018-09-17T08:22:40.645Z,50.11
2018-09-17T08:25:09.559Z,50.12
2018-09-17T08:27:37.880Z,49.65
2018-09-17T08:30:06.200Z,49.44
2018-09-17T08:32:34.522Z,49.11
2018-09-17T08:35:02.314Z,49.24
2018-09-17T08:37:31.285Z,49.11
2018-09-17T08:39:59.681Z,48.77
2018-09-17T08:42:28.057Z,48.41
2018-09-17T08:44:55.795Z,47.65
2018-09-17T08:47:24.728Z,48.05
2018-09-17T08:49:53.140Z,47.35
2018-09-17T08:52:21.520Z,47.62
2018-09-17T08:54:49.809Z,47.61
2018-09-17T08:57:18.212Z,47.62
2018-09-17T08:59:46.600Z,47.64
2018-09-17T09:02:14.381Z,47.75
2018-09-17T09:04:42.702Z,47.04
2018-09-17T09:07:11.025Z,47.12
2018-09-17T09:09:39.925Z,46.33
2018-09-17T09:12:07.693Z,46.79
2018-09-17T09:14:36.600Z,45.75
2018-09-17T09:17:04.921Z,45.86
2018-09-17T09:19:33.259Z,45.02
2018-09-17T09:22:00.983Z,45.33
2018-09-17T09:24:29.880Z,45.57
2018-09-17T09:26:58.202Z,45.46
2018-09-17T09:29:26.537Z,45.12
2018-09-17T09:31:54.847Z,43.57
2018-09-17T09:34:23.172Z,43.69
2018-09-17T09:36:51.491Z,43.31
2018-09-17T09:39:19.225Z,43.17
2018-09-17T09:41:47.544Z,43.30
2018-09-17T09:44:15.863Z,43.31
2018-09-17T09:46:44.773Z,43.18
2018-09-17T09:49:13.099Z,43.39
2018-09-17T09:51:40.847Z,42.95
2018-09-17T09:54:09.760Z,42.77
2018-09-17T09:56:37.497Z,42.50
2018-09-17T09:59:06.401Z,42.57
2018-09-17T10:01:34.642Z,42.33
2018-09-17T10:04:03.097Z,42.43
2018-09-17T10:06:31.421Z,42.51
2018-09-17T10:08:59.741Z,42.23
2018-09-17T10:11:29.322Z,42.84
2018-09-17T10:13:59.466Z,42.42
2018-09-17T10:16:27.796Z,41.70
2018-09-17T10:19:01.065Z,41.84
2018-09-17T10:21:30.006Z,42.18
2018-09-17T10:23:58.338Z,42.25
2018-09-17T10:26:26.067Z,42.00
2018-09-17T10:28:54.390Z,42.12
2018-09-17T10:31:23.303Z,41.91
2018-09-17T10:33:51.036Z,42.44
2018-09-17T10:36:19.936Z,42.56
2018-09-17T10:38:48.257Z,42.23
2018-09-17T10:41:16.577Z,42.28
2018-09-17T10:43:44.898Z,41.60
2018-09-17T10:46:12.637Z,41.78
2018-09-17T10:48:40.966Z,41.64
2018-09-17T10:51:09.290Z,40.29
2018-09-17T10:53:37.628Z,40.76
2018-09-17T10:56:06.546Z,40.09
2018-09-17T10:58:34.861Z,39.06
2018-09-17T11:01:03.196Z,39.20
2018-09-17T11:03:31.523Z,38.71
2018-09-17T11:05:59.841Z,37.37
2018-09-17T11:08:28.163Z,36.85
2018-09-17T11:10:56.496Z,37.37
2018-09-17T11:13:24.820Z,37.70
2018-09-17T11:15:52.595Z,37.38
2018-09-17T11:18:20.920Z,37.30
2018-09-17T11:20:49.833Z,36.87
2018-09-17T11:23:18.182Z,36.77
2018-09-17T11:25:46.502Z,37.04
2018-09-17T11:28:14.825Z,37.13
2018-09-17T11:30:42.561Z,37.08
2018-09-17T11:33:10.881Z,37.33
2018-09-17T11:35:39.791Z,37.21
2018-09-17T11:38:08.106Z,37.55
2018-09-17T11:40:36.425Z,37.56
2018-09-17T11:43:04.747Z,37.53
2018-09-17T11:45:33.075Z,37.72
2018-09-17T11:48:01.388Z,37.04
2018-09-17T11:50:29.130Z,36.97
2018-09-17T11:52:58.033Z,37.06
2018-09-17T11:55:25.832Z,37.02
2018-09-17T11:57:54.674Z,36.82
2018-09-17T12:00:22.415Z,34.95
2018-09-17T12:02:50.755Z,35.05
2018-09-17T12:05:19.652Z,35.84
2018-09-17T12:07:47.389Z,35.34
2018-09-17T12:10:16.309Z,34.79
2018-09-17T12:12:44.631Z,35.29
2018-09-17T12:15:12.951Z,35.32
2018-09-17T12:17:40.757Z,35.31
2018-09-17T12:20:09.667Z,35.12
2018-09-17T12:22:37.999Z,35.70
2018-09-17T12:25:05.743Z,35.47
2018-09-17T12:27:34.644Z,35.13
2018-09-17T12:30:02.963Z,35.08
2018-09-17T12:32:31.280Z,35.05
2018-09-17T12:34:59.596Z,34.37
2018-09-17T12:37:27.349Z,34.69
2018-09-17T12:39:56.249Z,34.63
2018-09-17T12:42:24.579Z,34.20
2018-09-17T12:44:52.951Z,34.71
2018-09-17T12:47:21.225Z,33.94
2018-09-17T12:49:48.963Z,34.08
2018-09-17T12:52:17.945Z,33.62
2018-09-17T12:54:46.273Z,33.63
2018-09-17T12:57:14.625Z,33.54
2018-09-17T12:59:42.931Z,33.78
2018-09-17T13:02:10.688Z,33.46
2018-09-17T13:04:39.599Z,33.97
2018-09-17T13:07:07.348Z,34.50
2018-09-17T13:09:35.670Z,35.24
2018-09-17T13:12:04.585Z,35.79
2018-09-17T13:14:32.326Z,35.84
2018-09-17T13:17:01.266Z,35.84
2018-09-17T13:19:29.628Z,36.12
2018-09-17T13:21:57.960Z,36.91
2018-09-17T13:24:26.288Z,37.42
2018-09-17T13:26:54.047Z,37.39
2018-09-17T13:29:22.946Z,37.63
2018-09-17T13:31:51.514Z,37.65
2018-09-17T13:34:19.644Z,37.55
2018-09-17T13:36:47.989Z,37.79
2018-09-17T13:39:16.792Z,37.97
2018-09-17T13:41:45.438Z,38.26
2018-09-17T13:44:13.792Z,38.55
2018-09-17T13:46:42.158Z,38.62
2018-09-17T13:49:10.447Z,38.79
2018-09-17T13:51:39.156Z,38.82
2018-09-17T13:54:07.824Z,38.56
2018-09-17T13:56:38.417Z,38.50
2018-09-17T13:59:06.759Z,38.17
2018-09-17T14:01:35.528Z,38.08
2018-09-17T14:04:03.868Z,38.08
2018-09-17T14:06:32.866Z,38.07
2018-09-17T14:09:00.606Z,37.85
2018-09-17T14:11:29.511Z,37.86
2018-09-17T14:13:57.849Z,37.36
2018-09-17T14:16:26.182Z,37.57
2018-09-17T14:18:54.518Z,37.56
2018-09-17T14:21:22.880Z,37.41
2018-09-17T14:23:51.462Z,37.36
2018-09-17T14:26:20.551Z,36.80
2018-09-17T14:28:48.730Z,36.97
2018-09-17T14:31:17.047Z,36.66
2018-09-17T14:33:44.798Z,36.58
2018-09-17T14:36:13.707Z,36.19
2018-09-17T14:38:42.043Z,36.77
2018-09-17T14:41:10.375Z,36.83
2018-09-17T14:43:38.214Z,36.81
2018-09-17T14:46:07.047Z,36.33
2018-09-17T14:48:35.359Z,35.96
2018-09-17T14:51:03.125Z,35.94
2018-09-17T14:53:32.136Z,36.23
2018-09-17T14:56:00.281Z,35.85
2018-09-17T14:58:29.167Z,35.67
2018-09-17T15:00:57.513Z,35.84
2018-09-17T15:03:25.811Z,35.74
2018-09-17T15:05:54.136Z,35.61
2018-09-17T15:08:22.561Z,36.00
2018-09-17T15:10:50.256Z,36.10
2018-09-17T15:13:19.161Z,36.89
2018-09-17T15:15:47.437Z,36.88
2018-09-17T15:18:15.310Z,37.29
2018-09-17T15:20:44.200Z,37.95
2018-09-17T15:23:12.548Z,38.69
2018-09-17T15:25:40.870Z,39.17
2018-09-17T15:28:09.210Z,39.92
2018-09-17T15:30:36.925Z,40.23
2018-09-17T15:33:05.239Z,40.39
2018-09-17T15:35:34.366Z,40.48
2018-09-17T15:38:01.922Z,40.64
2018-09-17T15:40:30.299Z,41.42
2018-09-17T15:42:59.095Z,41.61
2018-09-17T15:45:27.415Z,41.87
2018-09-17T15:47:55.725Z,42.17
2018-09-17T15:50:24.044Z,42.38
2018-09-17T15:52:52.360Z,42.70
2018-09-17T15:55:20.666Z,42.86
2018-09-17T15:57:49.030Z,42.96
2018-09-17T16:00:17.521Z,43.15
2018-09-17T16:02:45.617Z,43.21
2018-09-17T16:05:13.393Z,43.41
2018-09-17T16:07:42.298Z,43.77
2018-09-17T16:10:10.640Z,43.68
2018-09-17T16:12:38.989Z,43.83
2018-09-17T16:15:07.361Z,44.56
2018-09-17T16:17:35.100Z,44.43
2018-09-17T16:20:04.136Z,44.91
2018-09-17T16:22:32.365Z,44.81
2018-09-17T16:25:00.546Z,45.04
2018-09-17T16:27:29.500Z,45.20
2018-09-17T16:29:57.256Z,45.22
2018-09-17T16:32:25.825Z,45.27
2018-09-17T16:34:54.887Z,45.36
2018-09-17T16:37:23.229Z,45.52
2018-09-17T16:39:51.571Z,45.77
2018-09-17T16:42:19.934Z,46.14
2018-09-17T16:44:55.645Z,46.37
2018-09-17T16:47:24.580Z,46.71
2018-09-17T16:49:52.934Z,46.95
2018-09-17T16:52:21.282Z,47.31
2018-09-17T16:54:53.579Z,47.47
2018-09-17T16:57:22.045Z,48.77
2018-09-17T16:59:50.425Z,48.62
2018-09-17T17:02:18.753Z,49.04
2018-09-17T17:04:46.564Z,49.42
2018-09-17T17:07:20.096Z,49.26
2018-09-17T17:09:49.077Z,49.71
2018-09-17T17:12:15.309Z,50.48
2018-09-17T17:17:51.007Z,50.39
2018-09-17T17:20:09.195Z,51.08
2018-09-17T17:22:37.811Z,50.63
2018-09-17T17:25:07.207Z,51.27
2018-09-17T17:27:36.431Z,51.15
2018-09-17T17:30:04.898Z,51.78
2018-09-17T17:32:33.232Z,51.72
2018-09-17T17:35:01.559Z,51.78
2018-09-17T17:37:30.275Z,51.83
2018-09-17T17:39:58.169Z,51.93
2018-09-17T17:42:27.732Z,51.84
2018-09-17T17:44:55.713Z,52.05
2018-09-17T17:47:24.318Z,51.96
2018-09-17T17:49:52.996Z,51.93
2018-09-17T17:52:21.328Z,51.94
2018-09-17T17:54:49.641Z,51.90
2018-09-17T17:57:17.439Z,51.97
2018-09-17T17:59:46.332Z,51.84
2018-09-17T18:02:14.102Z,51.90
2018-09-17T18:04:43.023Z,52.11
2018-09-17T18:07:10.978Z,52.31
2018-09-17T18:09:39.757Z,52.56
2018-09-17T18:12:08.172Z,52.71
2018-09-17T18:14:36.514Z,52.70
2018-09-17T18:17:04.282Z,52.78
2018-09-17T18:19:33.210Z,52.90
2018-09-17T18:22:01.564Z,53.18
2018-09-17T18:24:29.351Z,53.36
2018-09-17T18:26:58.381Z,53.51
2018-09-17T18:29:27.694Z,53.53
2018-09-17T18:31:56.044Z,53.69
2018-09-17T18:34:24.160Z,54.00
2018-09-17T18:36:52.548Z,54.43
2018-09-17T18:39:21.495Z,55.06
2018-09-17T18:41:49.763Z,55.63
2018-09-17T18:44:18.124Z,55.97
2018-09-17T18:46:46.468Z,56.22
2018-09-17T18:49:14.803Z,56.21
2018-09-17T18:51:43.144Z,56.22
2018-09-17T18:54:11.509Z,56.12
2018-09-17T18:56:39.293Z,56.22
2018-09-17T18:59:08.206Z,55.99
2018-09-17T19:01:36.540Z,55.94
2018-09-17T19:04:04.384Z,55.85
2018-09-17T19:06:32.622Z,55.86
2018-09-17T19:09:01.631Z,56.12
2018-09-17T19:11:31.141Z,56.20
2018-09-17T19:13:58.455Z,56.41
2018-09-17T19:16:26.790Z,56.54
2018-09-17T19:18:55.108Z,56.42
2018-09-17T19:21:22.898Z,56.56
2018-09-17T19:23:51.833Z,56.67
2018-09-17T19:26:20.241Z,56.76
2018-09-17T19:28:50.618Z,56.80
2018-09-17T19:31:18.739Z,56.91
2018-09-17T19:33:46.555Z,56.85
2018-09-17T19:36:15.492Z,57.05
2018-09-17T19:38:44.547Z,57.09
2018-09-17T19:41:12.880Z,57.08
2018-09-17T19:43:40.686Z,57.30
2018-09-17T19:46:11.960Z,57.37
2018-09-17T19:48:40.663Z,57.58
2018-09-17T19:51:08.683Z,57.83
2018-09-17T19:53:37.558Z,58.07
2018-09-17T19:56:05.938Z,58.08
2018-09-17T19:58:39.159Z,58.15
2018-09-17T20:01:07.517Z,58.02
2018-09-17T20:03:35.851Z,58.00
2018-09-17T20:06:03.606Z,58.16
2018-09-17T20:08:31.940Z,58.24
2018-09-17T20:11:00.868Z,58.76
2018-09-17T20:13:29.197Z,59.03
2018-09-17T20:15:57.549Z,59.80
2018-09-17T20:18:25.992Z,60.29
2018-09-17T20:20:54.327Z,60.19
2018-09-17T20:23:22.659Z,60.04
2018-09-17T20:25:50.983Z,59.56
2018-09-17T20:28:19.311Z,59.78
2018-09-17T20:30:47.911Z,60.02
2018-09-17T20:33:15.665Z,60.19
2018-09-17T20:35:43.781Z,60.02
2018-09-17T20:38:12.747Z,60.10
2018-09-17T20:40:41.064Z,59.73
2018-09-17T20:43:09.434Z,59.84
2018-09-17T20:45:37.774Z,60.04
2018-09-17T20:48:06.306Z,60.25
2018-09-17T20:50:34.051Z,60.50
2018-09-17T20:53:03.239Z,60.70
2018-09-17T20:55:34.448Z,60.90
2018-09-17T20:58:03.105Z,60.65
2018-09-17T21:00:30.942Z,60.41
2018-09-17T21:02:59.893Z,60.71
2018-09-17T21:05:29.157Z,60.80
2018-09-17T21:07:56.909Z,61.10
2018-09-17T21:10:25.858Z,61.46
2018-09-17T21:12:54.242Z,63.20
2018-09-17T21:15:23.605Z,63.97
2018-09-17T21:17:51.707Z,64.36
2018-09-17T21:20:20.044Z,64.01
2018-09-17T21:22:48.456Z,63.65
2018-09-17T21:25:16.823Z,63.63
2018-09-17T21:27:45.465Z,63.68
2018-09-17T21:30:14.164Z,63.77
2018-09-17T21:32:41.359Z,63.73
2018-09-17T21:35:09.776Z,64.12
2018-09-17T21:37:40.005Z,63.74
2018-09-17T21:40:06.405Z,63.51
2018-09-17T21:42:35.703Z,63.13
2018-09-17T21:45:04.025Z,62.89
2018-09-17T21:47:31.781Z,63.57
2018-09-17T21:50:00.685Z,64.23
2018-09-17T21:52:29.027Z,65.43
2018-09-17T21:54:57.344Z,66.04
2018-09-17T21:57:25.668Z,65.99
2018-09-17T21:59:53.998Z,66.08
2018-09-17T22:02:22.378Z,66.12
2018-09-17T22:04:50.076Z,66.06
2018-09-17T22:07:18.994Z,66.10
2018-09-17T22:09:47.309Z,66.14
2018-09-17T22:12:21.842Z,66.08
2018-09-17T22:14:50.194Z,66.10
2018-09-17T22:17:18.521Z,66.08
2018-09-17T22:19:46.888Z,66.05
2018-09-17T22:22:15.148Z,66.30
2018-09-17T22:24:42.942Z,66.42
2018-09-17T22:27:11.214Z,66.38
2018-09-17T22:29:39.528Z,66.49
2018-09-17T22:32:08.431Z,66.54
2018-09-17T22:34:36.182Z,66.41
2018-09-17T22:37:05.090Z,66.43
2018-09-17T22:39:33.403Z,66.59
2018-09-17T22:42:01.760Z,66.71
2018-09-17T22:44:29.452Z,66.92
2018-09-17T22:46:58.344Z,66.78
2018-09-17T22:49:26.692Z,66.80
2018-09-17T22:51:54.423Z,67.21
2018-09-17T22:54:23.314Z,67.11
2018-09-17T22:56:51.058Z,67.17
2018-09-17T22:59:19.953Z,67.22
2018-09-17T23:01:47.684Z,67.26
2018-09-17T23:04:16.589Z,67.35
2018-09-17T23:06:44.345Z,67.56
2018-09-17T23:09:13.238Z,67.58
2018-09-17T23:11:41.557Z,67.44
2018-09-17T23:14:09.871Z,67.33
2018-09-17T23:16:38.196Z,67.39
2018-09-17T23:19:05.934Z,67.60
2018-09-17T23:21:34.250Z,67.84
2018-09-17T23:24:02.576Z,67.98
2018-09-17T23:26:31.479Z,68.05
2018-09-17T23:28:59.794Z,67.77
2018-09-17T23:31:27.536Z,67.43
2018-09-17T23:33:55.869Z,66.90
2018-09-17T23:36:24.209Z,66.61
2018-09-17T23:38:52.521Z,66.35
2018-09-17T23:41:21.430Z,66.23
2018-09-17T23:43:49.177Z,66.18
2018-09-17T23:46:18.099Z,66.06
2018-09-17T23:48:46.429Z,65.86
2018-09-17T23:51:14.752Z,65.78
2018-09-17T23:53:42.509Z,65.87
2018-09-17T23:56:10.941Z,66.06
2018-09-17T23:58:39.160Z,66.03
